createdAt,value
2019-03-08T00:01:38.799Z,50.40
2019-03-08T00:03:43.740Z,50.40
2019-03-08T00:05:48.526Z,50.50
2019-03-08T00:07:53.364Z,50.40
2019-03-08T00:09:59.328Z,50.40
2019-03-08T00:12:04.099Z,50.40
2019-03-08T00:14:09.029Z,50.50
2019-03-08T00:16:13.748Z,50.40
2019-03-08T00:18:18.728Z,50.40
2019-03-08T00:20:23.559Z,50.50
2019-03-08T00:22:28.598Z,50.60
2019-03-08T00:24:33.321Z,50.50
2019-03-08T00:26:38.559Z,51.00
2019-03-08T00:28:43.531Z,50.20
2019-03-08T00:30:48.300Z,50.40
2019-03-08T00:32:53.360Z,50.20
2019-03-08T00:34:58.178Z,50.00
2019-03-08T00:37:03.347Z,49.60
2019-03-08T00:39:08.225Z,49.70
2019-03-08T00:41:14.685Z,49.60
2019-03-08T00:43:19.469Z,49.50
2019-03-08T00:45:25.207Z,49.70
2019-03-08T00:47:30.179Z,49.50
2019-03-08T00:49:34.914Z,49.50
2019-03-08T00:51:39.665Z,49.70
2019-03-08T00:53:44.556Z,49.60
2019-03-08T00:55:49.305Z,49.70
2019-03-08T00:57:54.190Z,49.60
2019-03-08T00:59:59.145Z,49.60
2019-03-08T01:02:04.211Z,49.60
2019-03-08T01:04:09.045Z,49.60
2019-03-08T01:06:13.768Z,49.60
2019-03-08T01:08:18.679Z,49.60
2019-03-08T01:10:23.865Z,49.60
2019-03-08T01:12:28.825Z,49.60
2019-03-08T01:14:33.752Z,49.60
2019-03-08T01:16:38.778Z,49.50
2019-03-08T01:18:43.514Z,49.50
2019-03-08T01:20:48.534Z,49.50
2019-03-08T01:22:53.354Z,49.50
2019-03-08T01:24:58.405Z,49.60
2019-03-08T01:27:03.214Z,49.50
2019-03-08T01:29:08.140Z,49.60
2019-03-08T01:31:12.992Z,49.60
2019-03-08T01:33:17.916Z,49.50
2019-03-08T01:35:22.803Z,49.50
2019-03-08T01:37:27.876Z,49.50
2019-03-08T01:39:32.696Z,49.50
2019-03-08T01:41:37.773Z,49.50
2019-03-08T01:43:43.208Z,49.50
2019-03-08T01:45:48.767Z,49.50
2019-03-08T01:47:54.147Z,49.60
2019-03-08T01:49:59.495Z,49.50
2019-03-08T01:52:04.319Z,49.40
2019-03-08T01:54:09.237Z,49.40
2019-03-08T01:56:13.996Z,49.50
2019-03-08T01:58:18.924Z,49.40
2019-03-08T02:00:23.957Z,49.40
2019-03-08T02:02:28.953Z,50.00
2019-03-08T02:04:34.134Z,49.40
2019-03-08T02:06:38.984Z,49.40
2019-03-08T02:08:43.758Z,49.40
2019-03-08T02:10:48.659Z,49.40
2019-03-08T02:12:53.939Z,49.40
2019-03-08T02:14:58.752Z,49.40
2019-03-08T02:17:03.687Z,49.30
2019-03-08T02:19:08.578Z,49.30
2019-03-08T02:21:14.534Z,49.30
2019-03-08T02:23:19.563Z,49.30
2019-03-08T02:25:24.794Z,49.30
2019-03-08T02:27:29.765Z,49.30
2019-03-08T02:29:34.647Z,49.30
2019-03-08T02:31:39.606Z,49.80
2019-03-08T02:33:45.685Z,49.20
2019-03-08T02:35:50.465Z,49.20
2019-03-08T02:37:55.334Z,49.10
2019-03-08T02:40:00.328Z,49.20
2019-03-08T02:42:05.366Z,49.10
2019-03-08T02:44:10.479Z,49.00
2019-03-08T02:46:15.345Z,49.00
2019-03-08T02:48:20.388Z,49.00
2019-03-08T02:50:25.286Z,49.00
2019-03-08T02:52:30.128Z,48.90
2019-03-08T02:54:34.994Z,49.10
2019-03-08T02:56:39.892Z,49.10
2019-03-08T02:58:46.245Z,49.00
2019-03-08T03:00:51.324Z,48.80
2019-03-08T03:02:56.285Z,49.00
2019-03-08T03:05:05.043Z,48.90
2019-03-08T03:07:09.837Z,49.00
2019-03-08T03:09:15.985Z,48.80
2019-03-08T03:11:20.829Z,48.90
2019-03-08T03:13:25.870Z,48.80
2019-03-08T03:15:30.765Z,48.80
2019-03-08T03:17:35.594Z,48.80
2019-03-08T03:19:40.344Z,48.80
2019-03-08T03:21:45.165Z,48.80
2019-03-08T03:23:49.924Z,48.90
2019-03-08T03:25:54.784Z,48.80
2019-03-08T03:27:59.665Z,48.70
2019-03-08T03:30:05.817Z,48.80
2019-03-08T03:32:10.718Z,48.70
2019-03-08T03:34:15.527Z,48.60
2019-03-08T03:36:20.293Z,48.50
2019-03-08T03:38:25.012Z,48.80
2019-03-08T03:40:29.732Z,48.80
2019-03-08T03:42:34.529Z,48.60
2019-03-08T03:44:40.462Z,48.80
2019-03-08T03:46:45.273Z,48.60
2019-03-08T03:48:50.294Z,48.70
2019-03-08T03:50:55.110Z,48.70
2019-03-08T03:52:59.925Z,48.80
2019-03-08T03:55:05.437Z,48.80
2019-03-08T03:57:12.004Z,48.70
2019-03-08T03:59:16.937Z,48.50
2019-03-08T04:01:28.684Z,48.80
2019-03-08T04:03:33.490Z,48.60
2019-03-08T04:05:38.274Z,48.70
2019-03-08T04:07:42.938Z,48.50
2019-03-08T04:09:47.657Z,48.70
2019-03-08T04:11:52.357Z,48.30
2019-03-08T04:13:57.387Z,48.50
2019-03-08T04:16:02.109Z,48.40
2019-03-08T04:18:06.894Z,48.50
2019-03-08T04:20:13.032Z,48.30
2019-03-08T04:22:17.842Z,48.30
2019-03-08T04:24:22.602Z,48.50
2019-03-08T04:26:27.655Z,48.40
2019-03-08T04:28:32.490Z,48.20
2019-03-08T04:30:39.013Z,48.20
2019-03-08T04:32:43.834Z,48.10
2019-03-08T04:34:48.718Z,48.20
2019-03-08T04:36:53.555Z,48.20
2019-03-08T04:38:58.475Z,48.10
2019-03-08T04:41:03.395Z,48.20
2019-03-08T04:43:08.288Z,48.30
2019-03-08T04:45:13.122Z,48.30
2019-03-08T04:47:18.096Z,47.90
2019-03-08T04:49:23.250Z,48.00
2019-03-08T04:51:28.353Z,48.30
2019-03-08T04:53:33.188Z,48.10
2019-03-08T04:55:38.022Z,48.20
2019-03-08T04:57:42.919Z,47.90
2019-03-08T04:59:49.131Z,48.30
2019-03-08T05:01:54.154Z,47.90
2019-03-08T05:03:59.035Z,48.10
2019-03-08T05:06:03.918Z,48.20
2019-03-08T05:08:08.856Z,48.10
2019-03-08T05:10:14.651Z,47.90
2019-03-08T05:12:19.710Z,48.20
2019-03-08T05:14:24.735Z,48.00
2019-03-08T05:16:29.543Z,48.20
2019-03-08T05:18:34.304Z,48.00
2019-03-08T05:20:39.134Z,47.80
2019-03-08T05:22:44.143Z,48.10
2019-03-08T05:24:49.202Z,48.10
2019-03-08T05:26:54.070Z,47.90
2019-03-08T05:28:58.854Z,47.80
2019-03-08T05:31:03.815Z,47.70
2019-03-08T05:33:08.524Z,47.90
2019-03-08T05:35:13.791Z,47.90
2019-03-08T05:37:18.582Z,47.90
2019-03-08T05:39:23.454Z,47.80
2019-03-08T05:41:28.378Z,47.90
2019-03-08T05:43:33.258Z,48.20
2019-03-08T05:45:38.144Z,47.90
2019-03-08T05:47:43.154Z,48.20
2019-03-08T05:49:48.002Z,48.00
2019-03-08T05:51:52.774Z,48.00
2019-03-08T05:53:57.635Z,48.00
2019-03-08T05:56:02.575Z,48.20
2019-03-08T05:58:07.506Z,48.10
2019-03-08T06:00:13.462Z,48.20
2019-03-08T06:02:18.417Z,48.20
2019-03-08T06:04:23.219Z,48.00
2019-03-08T06:06:28.180Z,48.00
2019-03-08T06:08:32.914Z,48.10
2019-03-08T06:10:38.187Z,48.20
2019-03-08T06:12:43.367Z,47.90
2019-03-08T06:14:48.335Z,48.10
2019-03-08T06:16:53.288Z,48.00
2019-03-08T06:18:58.115Z,47.80
2019-03-08T06:21:03.040Z,47.80
2019-03-08T06:23:07.849Z,47.50
2019-03-08T06:25:12.675Z,48.00
2019-03-08T06:27:17.922Z,48.00
2019-03-08T06:29:22.782Z,47.70
2019-03-08T06:31:27.687Z,47.90
2019-03-08T06:33:32.457Z,47.80
2019-03-08T06:35:38.558Z,47.70
2019-03-08T06:37:43.495Z,47.80
2019-03-08T06:39:48.329Z,47.60
2019-03-08T06:41:53.142Z,48.00
2019-03-08T06:43:58.150Z,48.00
2019-03-08T06:46:03.002Z,47.80
2019-03-08T06:48:07.903Z,47.80
2019-03-08T06:50:12.974Z,48.00
2019-03-08T06:52:18.027Z,48.00
2019-03-08T06:54:29.684Z,47.50
2019-03-08T06:56:34.706Z,47.60
2019-03-08T06:58:58.583Z,47.70
2019-03-08T07:01:08.155Z,47.80
2019-03-08T07:03:12.930Z,47.50
2019-03-08T07:05:17.877Z,47.70
2019-03-08T07:07:22.808Z,47.70
2019-03-08T07:09:28.655Z,47.90
2019-03-08T07:11:33.592Z,48.00
2019-03-08T07:13:38.422Z,47.90
2019-03-08T07:15:43.444Z,47.70
2019-03-08T07:17:48.262Z,47.60
2019-03-08T07:20:00.054Z,47.80
2019-03-08T07:22:18.223Z,47.70
2019-03-08T07:24:35.035Z,47.70
2019-03-08T07:26:58.983Z,47.70
2019-03-08T07:29:22.858Z,47.60
2019-03-08T07:31:38.923Z,47.70
2019-03-08T07:33:54.499Z,47.60
2019-03-08T07:36:08.875Z,47.40
2019-03-08T07:38:32.894Z,47.60
2019-03-08T07:40:44.955Z,47.50
2019-03-08T07:43:08.715Z,47.40
2019-03-08T07:45:32.481Z,47.30
2019-03-08T07:47:43.414Z,47.00
2019-03-08T07:50:07.335Z,46.90
2019-03-08T07:52:31.180Z,46.80
2019-03-08T07:54:55.187Z,46.80
2019-03-08T07:57:06.945Z,46.80
2019-03-08T07:59:30.773Z,46.50
2019-03-08T08:01:54.735Z,46.50
2019-03-08T08:04:16.546Z,46.70
2019-03-08T08:06:40.630Z,46.40
2019-03-08T08:08:59.964Z,46.40
2019-03-08T08:11:15.350Z,46.30
2019-03-08T08:13:35.033Z,46.00
2019-03-08T08:15:50.792Z,46.00
2019-03-08T08:18:14.821Z,45.90
2019-03-08T08:20:32.984Z,45.90
2019-03-08T08:22:56.871Z,45.60
2019-03-08T08:25:16.939Z,45.70
2019-03-08T08:27:40.766Z,45.80
2019-03-08T08:30:04.621Z,45.40
2019-03-08T08:32:22.551Z,45.20
2019-03-08T08:34:40.815Z,45.30
2019-03-08T08:36:56.029Z,45.20
2019-03-08T08:39:12.941Z,45.20
2019-03-08T08:41:36.864Z,45.20
2019-03-08T08:43:52.029Z,45.20
2019-03-08T08:46:15.883Z,45.30
2019-03-08T08:48:32.693Z,45.40
2019-03-08T08:50:56.672Z,45.50
2019-03-08T08:53:10.187Z,45.10
2019-03-08T08:55:34.187Z,44.80
2019-03-08T08:57:52.270Z,44.90
2019-03-08T09:00:16.455Z,44.60
2019-03-08T09:02:40.266Z,44.70
2019-03-08T09:04:54.407Z,44.80
2019-03-08T09:07:18.307Z,44.80
2019-03-08T09:09:42.267Z,44.70
2019-03-08T09:11:54.001Z,44.60
2019-03-08T09:14:05.227Z,44.80
2019-03-08T09:16:15.155Z,44.40
2019-03-08T09:18:39.055Z,44.40
2019-03-08T09:21:03.007Z,44.40
2019-03-08T09:23:19.327Z,44.30
2019-03-08T09:25:43.172Z,44.60
2019-03-08T09:28:07.067Z,44.50
2019-03-08T09:30:31.666Z,44.10
2019-03-08T09:32:43.236Z,44.20
2019-03-08T09:35:07.220Z,43.70
2019-03-08T09:37:20.575Z,43.70
2019-03-08T09:39:44.413Z,43.60
2019-03-08T09:42:09.814Z,43.40
2019-03-08T09:44:33.707Z,43.60
2019-03-08T09:46:45.648Z,43.30
2019-03-08T09:49:03.308Z,43.20
2019-03-08T09:51:27.299Z,43.40
2019-03-08T09:53:41.705Z,43.10
2019-03-08T09:56:06.530Z,42.90
2019-03-08T09:58:30.504Z,42.80
2019-03-08T10:00:42.398Z,42.60
2019-03-08T10:03:06.252Z,42.40
2019-03-08T10:05:26.239Z,42.40
2019-03-08T10:07:37.487Z,42.20
2019-03-08T10:10:01.404Z,42.00
2019-03-08T10:12:25.463Z,42.00
2019-03-08T10:14:41.872Z,41.70
2019-03-08T10:16:59.373Z,42.20
2019-03-08T10:19:23.275Z,41.20
2019-03-08T10:21:47.238Z,41.30
2019-03-08T10:24:11.067Z,41.00
2019-03-08T10:26:34.955Z,41.00
2019-03-08T10:28:46.879Z,40.90
2019-03-08T10:31:10.762Z,41.30
2019-03-08T10:33:28.908Z,41.00
2019-03-08T10:35:52.767Z,41.70
2019-03-08T10:38:22.594Z,41.30
2019-03-08T10:40:43.467Z,41.60
2019-03-08T10:43:05.020Z,41.40
2019-03-08T10:45:24.145Z,41.50
2019-03-08T10:47:55.834Z,41.70
2019-03-08T10:50:02.564Z,41.60
2019-03-08T10:52:18.045Z,41.70
2019-03-08T10:54:40.964Z,41.60
2019-03-08T10:56:55.178Z,41.50
2019-03-08T10:59:19.045Z,42.00
2019-03-08T11:01:42.819Z,41.70
2019-03-08T11:04:06.633Z,41.50
2019-03-08T11:06:26.979Z,41.50
2019-03-08T11:08:38.247Z,41.80
2019-03-08T11:10:54.548Z,41.30
2019-03-08T11:13:10.959Z,41.50
2019-03-08T11:15:34.810Z,41.60
2019-03-08T11:17:58.717Z,41.90
2019-03-08T11:20:22.557Z,41.30
2019-03-08T11:22:46.406Z,41.70
2019-03-08T11:25:08.298Z,41.60
2019-03-08T11:27:30.591Z,41.90
2019-03-08T11:29:46.137Z,42.00
2019-03-08T11:32:10.158Z,42.00
2019-03-08T11:34:20.572Z,42.00
2019-03-08T11:36:37.411Z,42.00
2019-03-08T11:39:01.299Z,42.00
2019-03-08T11:41:18.395Z,42.10
2019-03-08T11:43:28.929Z,42.10
2019-03-08T11:45:49.806Z,42.20
2019-03-08T11:48:05.834Z,42.00
2019-03-08T11:50:24.974Z,41.80
2019-03-08T11:52:37.390Z,41.70
2019-03-08T11:55:01.249Z,42.00
2019-03-08T11:57:21.132Z,42.10
2019-03-08T11:59:44.013Z,42.30
2019-03-08T12:02:07.997Z,42.20
2019-03-08T12:04:31.763Z,42.10
2019-03-08T12:06:55.669Z,41.80
2019-03-08T12:09:07.761Z,41.90
2019-03-08T12:11:28.738Z,41.80
2019-03-08T12:13:39.298Z,42.00
2019-03-08T12:15:56.585Z,42.20
2019-03-08T12:18:08.710Z,41.90
2019-03-08T12:20:27.546Z,41.60
2019-03-08T12:22:51.385Z,41.60
2019-03-08T12:25:15.239Z,41.20
2019-03-08T12:27:25.771Z,41.10
2019-03-08T12:29:39.247Z,41.00
2019-03-08T12:32:03.066Z,40.90
2019-03-08T12:34:21.605Z,41.00
2019-03-08T12:36:41.267Z,41.00
2019-03-08T12:38:55.301Z,41.20
2019-03-08T12:41:10.262Z,42.20
2019-03-08T12:43:34.080Z,43.30
2019-03-08T12:45:50.217Z,43.40
2019-03-08T12:48:06.362Z,43.20
2019-03-08T12:50:21.686Z,43.10
2019-03-08T12:52:45.618Z,43.10
2019-03-08T12:55:09.480Z,43.10
2019-03-08T12:57:33.353Z,43.10
2019-03-08T12:59:57.166Z,43.00
2019-03-08T13:02:21.208Z,43.10
2019-03-08T13:04:36.998Z,43.10
2019-03-08T13:07:01.018Z,43.40
2019-03-08T13:09:30.273Z,43.00
2019-03-08T13:11:35.078Z,43.20
2019-03-08T13:13:41.086Z,43.00
2019-03-08T13:15:46.113Z,42.90
2019-03-08T13:17:50.978Z,43.10
2019-03-08T13:19:55.916Z,43.20
2019-03-08T13:22:00.755Z,43.40
2019-03-08T13:24:05.604Z,43.20
2019-03-08T13:26:10.484Z,43.20
2019-03-08T13:28:15.291Z,43.10
2019-03-08T13:30:21.447Z,43.20
2019-03-08T13:32:28.123Z,43.20
2019-03-08T13:34:33.003Z,43.30
2019-03-08T13:36:38.019Z,43.40
2019-03-08T13:38:42.971Z,43.30
2019-03-08T13:40:48.196Z,43.40
2019-03-08T13:42:53.124Z,43.30
2019-03-08T13:44:58.957Z,43.40
2019-03-08T13:47:03.802Z,43.30
2019-03-08T13:49:08.718Z,43.40
2019-03-08T13:51:14.035Z,43.50
2019-03-08T13:53:18.787Z,43.60
2019-03-08T13:55:23.643Z,43.50
2019-03-08T13:57:28.740Z,43.20
2019-03-08T13:59:33.573Z,43.30
2019-03-08T14:01:38.424Z,43.30
2019-03-08T14:03:43.228Z,43.30
2019-03-08T14:05:48.224Z,43.50
2019-03-08T14:07:53.050Z,43.60
2019-03-08T14:09:57.844Z,43.60
2019-03-08T14:12:02.562Z,43.50
2019-03-08T14:14:07.722Z,43.60
2019-03-08T14:16:13.304Z,43.70
2019-03-08T14:18:18.097Z,43.80
2019-03-08T14:20:23.057Z,43.70
2019-03-08T14:22:28.187Z,43.70
2019-03-08T14:24:33.061Z,43.80
2019-03-08T14:26:38.143Z,43.70
2019-03-08T14:28:43.192Z,43.60
2019-03-08T14:30:57.851Z,43.50
2019-03-08T14:33:03.105Z,43.60
2019-03-08T14:35:08.285Z,43.50
2019-03-08T14:37:16.112Z,43.40
2019-03-08T14:39:20.414Z,43.40
2019-03-08T14:41:34.708Z,43.40
2019-03-08T14:43:53.873Z,43.50
2019-03-08T14:46:03.385Z,43.60
2019-03-08T14:48:09.489Z,43.50
2019-03-08T14:50:14.973Z,43.40
2019-03-08T14:52:21.562Z,43.50
2019-03-08T14:54:26.551Z,43.40
2019-03-08T14:56:31.921Z,43.20
2019-03-08T14:58:40.329Z,43.40
2019-03-08T15:00:44.738Z,43.50
2019-03-08T15:02:49.688Z,43.40
2019-03-08T15:04:54.695Z,43.70
2019-03-08T15:07:01.282Z,43.10
2019-03-08T15:09:11.436Z,43.80
2019-03-08T15:11:16.436Z,43.80
2019-03-08T15:13:24.256Z,44.00
2019-03-08T15:15:27.916Z,44.00
2019-03-08T15:17:32.815Z,44.10
2019-03-08T15:19:40.431Z,44.20
2019-03-08T15:22:29.720Z,44.30
2019-03-08T15:25:01.330Z,44.40
2019-03-08T15:27:19.685Z,44.60
2019-03-08T15:29:24.915Z,44.60
2019-03-08T15:31:30.107Z,44.60
2019-03-08T15:33:35.117Z,44.70
2019-03-08T15:35:39.887Z,44.70
2019-03-08T15:37:44.830Z,44.60
2019-03-08T15:39:49.757Z,44.80
2019-03-08T15:41:54.643Z,45.10
2019-03-08T15:44:01.255Z,45.40
2019-03-08T15:46:05.967Z,46.20
2019-03-08T15:48:14.162Z,46.40
2019-03-08T15:50:17.324Z,46.40
2019-03-08T15:52:22.090Z,46.90
2019-03-08T15:54:27.096Z,47.30
2019-03-08T15:56:31.925Z,47.40
2019-03-08T15:58:36.742Z,47.30
2019-03-08T16:00:41.646Z,47.30
2019-03-08T16:02:48.327Z,47.20
2019-03-08T16:04:53.245Z,47.60
2019-03-08T16:06:58.090Z,47.60
2019-03-08T16:09:03.349Z,47.70
2019-03-08T16:11:09.976Z,47.80
2019-03-08T16:13:14.757Z,47.30
2019-03-08T16:15:20.190Z,47.20
2019-03-08T16:17:25.849Z,47.60
2019-03-08T16:19:32.999Z,47.00
2019-03-08T16:21:39.724Z,47.00
2019-03-08T16:23:44.656Z,47.00
2019-03-08T16:25:57.644Z,47.00
2019-03-08T16:28:28.530Z,47.10
2019-03-08T16:30:50.751Z,47.00
2019-03-08T16:33:21.758Z,47.10
2019-03-08T16:35:55.022Z,47.20
2019-03-08T16:38:34.078Z,47.20
2019-03-08T16:41:28.332Z,47.40
2019-03-08T16:44:37.063Z,47.50
2019-03-08T16:47:08.749Z,47.50
2019-03-08T16:49:43.054Z,47.50
2019-03-08T16:52:23.450Z,47.60
2019-03-08T16:54:48.002Z,47.60
2019-03-08T16:57:14.905Z,47.70
2019-03-08T16:59:59.038Z,47.70
2019-03-08T17:02:29.007Z,47.70
2019-03-08T17:05:00.777Z,47.80
2019-03-08T17:07:27.522Z,47.90
2019-03-08T17:10:04.789Z,48.10
2019-03-08T17:12:38.789Z,47.90
2019-03-08T17:15:20.009Z,47.80
2019-03-08T17:17:43.280Z,48.20
2019-03-08T17:20:04.078Z,48.80
2019-03-08T17:22:33.169Z,48.50
2019-03-08T17:24:56.543Z,48.10
2019-03-08T17:27:12.946Z,48.40
2019-03-08T17:29:34.131Z,48.60
2019-03-08T17:31:48.210Z,48.80
2019-03-08T17:34:06.492Z,48.80
2019-03-08T17:36:32.237Z,48.80
2019-03-08T17:38:41.894Z,48.80
2019-03-08T17:41:00.410Z,48.70
2019-03-08T17:43:24.255Z,49.10
2019-03-08T17:45:48.000Z,49.10
2019-03-08T17:48:05.241Z,48.50
2019-03-08T17:50:24.240Z,49.00
2019-03-08T17:52:48.053Z,49.20
2019-03-08T17:55:11.961Z,48.90
2019-03-08T17:57:35.823Z,49.00
2019-03-08T17:59:59.737Z,49.40
2019-03-08T18:02:17.146Z,49.20
2019-03-08T18:04:58.305Z,49.60
2019-03-08T18:07:40.484Z,49.40
2019-03-08T18:10:17.063Z,49.40
2019-03-08T18:12:41.244Z,49.40
2019-03-08T18:15:05.272Z,49.40
2019-03-08T18:17:29.415Z,49.60
2019-03-08T18:19:47.899Z,49.70
2019-03-08T18:22:05.385Z,50.10
2019-03-08T18:24:37.825Z,50.00
2019-03-08T18:27:01.922Z,49.70
2019-03-08T18:29:37.603Z,50.10
2019-03-08T18:32:09.835Z,50.20
2019-03-08T18:34:35.951Z,50.70
2019-03-08T18:36:53.310Z,51.00
2019-03-08T18:39:17.549Z,51.10
2019-03-08T18:41:42.903Z,51.10
2019-03-08T18:44:06.908Z,51.10
2019-03-08T18:46:30.922Z,51.10
2019-03-08T18:48:41.984Z,51.00
2019-03-08T18:51:05.829Z,51.10
2019-03-08T18:53:30.047Z,50.90
2019-03-08T18:55:53.913Z,51.00
2019-03-08T18:58:17.845Z,51.00
2019-03-08T19:00:37.053Z,50.80
2019-03-08T19:02:51.487Z,50.80
2019-03-08T19:05:15.444Z,50.80
2019-03-08T19:07:31.510Z,50.90
2019-03-08T19:09:40.695Z,50.70
2019-03-08T19:11:51.392Z,50.70
2019-03-08T19:14:13.244Z,50.80
2019-03-08T19:16:37.092Z,51.00
2019-03-08T19:19:01.020Z,50.90
2019-03-08T19:21:19.618Z,51.10
2019-03-08T19:23:30.571Z,51.20
2019-03-08T19:26:12.627Z,51.30
2019-03-08T19:28:55.948Z,51.30
2019-03-08T19:31:35.944Z,51.30
2019-03-08T19:34:19.506Z,51.30
2019-03-08T19:37:03.669Z,51.30
2019-03-08T19:39:37.318Z,51.00
2019-03-08T19:42:23.382Z,51.00
2019-03-08T19:44:40.049Z,51.50
2019-03-08T19:47:03.962Z,51.70
2019-03-08T19:49:28.167Z,51.90
2019-03-08T19:51:52.178Z,51.80
2019-03-08T19:54:16.330Z,51.80
2019-03-08T19:56:30.106Z,51.90
2019-03-08T19:58:48.294Z,51.90
2019-03-08T20:01:29.350Z,51.80
2019-03-08T20:04:05.349Z,51.70
2019-03-08T20:06:49.148Z,52.30
2019-03-08T20:09:28.884Z,51.10
2019-03-08T20:12:04.238Z,51.70
2019-03-08T20:14:52.872Z,51.70
2019-03-08T20:17:42.829Z,52.70
2019-03-08T20:20:14.810Z,52.20
2019-03-08T20:22:51.139Z,52.60
2019-03-08T20:25:26.551Z,51.90
2019-03-08T20:28:09.912Z,53.00
2019-03-08T20:30:46.831Z,53.20
2019-03-08T20:33:18.681Z,52.90
2019-03-08T20:35:59.197Z,53.50
2019-03-08T20:38:36.627Z,53.80
2019-03-08T20:41:05.376Z,53.50
2019-03-08T20:43:25.877Z,53.20
2019-03-08T20:45:55.817Z,53.60
2019-03-08T20:48:10.632Z,54.00
2019-03-08T20:50:31.182Z,54.60
2019-03-08T20:53:02.550Z,55.00
2019-03-08T20:55:10.975Z,54.90
2019-03-08T20:57:16.195Z,55.00
2019-03-08T20:59:21.036Z,55.50
2019-03-08T21:01:25.944Z,55.40
2019-03-08T21:03:31.006Z,55.30
2019-03-08T21:05:35.845Z,55.20
2019-03-08T21:07:40.658Z,55.20
2019-03-08T21:09:47.017Z,55.30
2019-03-08T21:11:51.963Z,55.10
2019-03-08T21:13:56.930Z,54.50
2019-03-08T21:16:02.763Z,52.70
2019-03-08T21:18:07.629Z,54.60
2019-03-08T21:20:12.500Z,55.20
2019-03-08T21:22:17.377Z,53.00
2019-03-08T21:24:22.220Z,55.20
2019-03-08T21:26:27.217Z,54.40
2019-03-08T21:28:32.069Z,55.40
2019-03-08T21:30:36.985Z,55.60
2019-03-08T21:32:41.928Z,55.10
2019-03-08T21:34:46.903Z,56.10
2019-03-08T21:36:51.868Z,56.30
2019-03-08T21:38:56.819Z,55.80
2019-03-08T21:41:01.612Z,55.50
2019-03-08T21:43:06.496Z,55.70
2019-03-08T21:45:12.031Z,55.60
2019-03-08T21:47:16.915Z,56.00
2019-03-08T21:49:22.021Z,56.00
2019-03-08T21:51:26.900Z,55.50
2019-03-08T21:53:31.757Z,55.70
2019-03-08T21:55:37.715Z,55.50
2019-03-08T21:57:42.710Z,55.70
2019-03-08T21:59:47.559Z,55.50
2019-03-08T22:01:52.241Z,55.30
2019-03-08T22:04:02.409Z,55.80
2019-03-08T22:06:07.437Z,55.30
2019-03-08T22:08:17.534Z,55.30
2019-03-08T22:10:37.831Z,55.40
2019-03-08T22:12:46.755Z,55.40
2019-03-08T22:14:50.897Z,55.00
2019-03-08T22:16:57.773Z,55.40
2019-03-08T22:19:02.514Z,55.20
2019-03-08T22:21:07.385Z,55.20
2019-03-08T22:23:12.269Z,54.90
2019-03-08T22:25:17.221Z,55.00
2019-03-08T22:27:22.078Z,55.00
2019-03-08T22:29:26.924Z,54.80
2019-03-08T22:31:31.624Z,54.90
2019-03-08T22:33:36.424Z,55.00
2019-03-08T22:35:41.174Z,54.70
2019-03-08T22:37:45.846Z,54.90
2019-03-08T22:39:50.684Z,54.70
2019-03-08T22:41:55.376Z,54.30
2019-03-08T22:44:00.231Z,54.70
2019-03-08T22:46:06.894Z,54.80
2019-03-08T22:48:11.841Z,54.70
2019-03-08T22:50:16.721Z,54.50
2019-03-08T22:52:21.492Z,54.00
2019-03-08T22:54:26.473Z,54.40
2019-03-08T22:56:31.349Z,54.30
2019-03-08T22:58:36.205Z,54.30
2019-03-08T23:01:03.934Z,54.30
2019-03-08T23:03:10.099Z,54.10
2019-03-08T23:05:14.886Z,54.00
2019-03-08T23:07:19.830Z,54.10
2019-03-08T23:09:24.814Z,54.10
2019-03-08T23:11:31.340Z,53.80
2019-03-08T23:13:36.115Z,53.80
2019-03-08T23:15:40.860Z,53.50
2019-03-08T23:17:45.810Z,53.40
2019-03-08T23:19:51.679Z,53.60
2019-03-08T23:21:56.414Z,53.80
2019-03-08T23:24:01.395Z,54.30
2019-03-08T23:26:06.093Z,53.50
2019-03-08T23:28:30.042Z,53.40
2019-03-08T23:30:34.993Z,53.40
2019-03-08T23:32:43.443Z,53.20
2019-03-08T23:34:48.208Z,53.50
2019-03-08T23:36:53.052Z,53.40
2019-03-08T23:38:57.808Z,53.30
2019-03-08T23:41:02.645Z,53.20
2019-03-08T23:43:07.365Z,53.20
2019-03-08T23:45:12.204Z,53.20
2019-03-08T23:47:17.082Z,53.20
2019-03-08T23:49:21.853Z,52.90
2019-03-08T23:51:26.758Z,52.90
2019-03-08T23:53:31.651Z,53.10
2019-03-08T23:55:36.374Z,52.90
2019-03-08T23:57:41.285Z,53.20
2019-03-08T23:59:59.200Z,52.90
